Details From RJFR - NEW KITAKYUSHU
To RJFT - KUMAMOTO
Flight Number -
Tags generated
Created
Modified
Stats Distance 62 nm / 114 km
Max Altitude 700 ft / 213 m
Waypoints 3
Social Downloads 0
Likes 0
Share VATSIM

Download

Looking for another format? Having issues loading an existing format? Contact us
Advertisement - Login to hide

Notes

Basic altitude profile: - Ascent Rate: 2500ft/min - Ascent Speed: 250kts - Cruise Altitude: 35000ft - Cruise Speed: 420kts - Descent Rate: 1500ft/min - Descent Speed: 250kts Options: - Use NATs: yes - Use PACOTS: yes - Use low airways: yes - Use high airways: yes

Route

RJFR KANDA RJFT

ID Type Via Altitude Latitude Longitude Leg Dist Tot Dist Heading (true) Name
O RJFR APT - 0 ft / 0 m 33.84594˚ 131.03469˚ - 0 nm - NEW KITAKYUSHU
KANDA FIX - 700 ft / 213 m 33.81856˚ 131.00817˚ 2 nm 2 nm 219° / 219° -
O RJFT APT - 0 ft / 0 m 32.83732˚ 130.85505˚ 59 nm 61 nm 187° / 187° KUMAMOTO

Altitude Profile

Advertisement - Login to hide

RJFR

Details ICAO RJFR (KKJ)
Name NEW KITAKYUSHU
Region Japan
Timezone Asia/Tokyo (UTC+9.0)
Stats Elevation 21 ft / 6 m (AMSL)
Location 33.845940° 131.034689°
Runways 1
Magnetic Variation 7.574° W

METAR

RJFR 251000Z VRB03KT CAVOK 24/20 Q1011

Decode

TAF

TAF TAF RJFR 250509Z 2506/2612 07005KT 9999 FEW030 TEMPO 2603/2606 4000 -SHRA BR FEW005 SCT007 BKN009 BECMG 2606/2609 12006KT

Decode

Departure Runways

ID Width Length Bearing (true) Bearing (mag) Surface Threshold Offset Overrun Length
18 260 ft / 79 m 8,625 ft / 2,629 m 170.36° 177.93° Asphalt 0 ft / 0 m 0 ft / 0 m
36 260 ft / 79 m 8,625 ft / 2,629 m 350.36° 357.93° Asphalt 0 ft / 0 m 0 ft / 0 m

RJFT

Details ICAO RJFT (KMJ)
Name KUMAMOTO
Region Japan
Timezone Asia/Tokyo (UTC+9.0)
Stats Elevation 642 ft / 196 m (AMSL)
Location 32.837318° 130.855052°
Runways 1
Magnetic Variation 7.266° W

METAR

RJFT 251000Z 19004KT 150V220 CAVOK 27/19 Q1012

Decode

TAF

TAF RJFT 250512Z 2506/2612 21008KT 9999 FEW040 BECMG 2510/2512 07005KT BECMG 2521/2600 22012KT TEMPO 2606/2612 3000 SHRA BR FEW002 BKN005 BKN010

Decode

Destination Runways

ID Width Length Bearing (true) Bearing (mag) Surface Threshold Offset Overrun Length
07 150 ft / 46 m 9,833 ft / 2,997 m 64.47° 71.74° Asphalt 0 ft / 0 m 200 ft / 61 m
25 150 ft / 46 m 9,833 ft / 2,997 m 244.49° 251.76° Asphalt 0 ft / 0 m 200 ft / 61 m

Approach Navaids

Runway Type Ident Frequency Range Bearing (true) Bearing (mag) Slope Elevation
07 Localiser IKU 109.30 MHz 18 nm / 33 km 64.49° 71.75° - 642 ft / 196 m (AMSL)
07 Glidescope IKU 109.30 MHz 10 nm / 19 km 64.48° 71.75° 3.00° 651 ft / 198 m (AMSL)